Time;durP1;ratioP1;P1;durP2;ratioP2;P2;SDS_P1;SDS_P2;PMS_P1;PMS_P2;Temp;Humidity;BMP_temperature;BMP_pressure;BME280_temperature;BME280_humidity;BME280_pressure;Samples;Min_cycle;Max_cycle;Signal;HPM_P1;HPM_P2
2022/06/16 00:03:37;;;;;;;20.60;4.07;;;;;;;21.23;49.01;99662.16;12183145;19;20074;-79
2022/06/16 00:07:40;;;;;;;9.02;3.63;;;;;;;21.15;48.72;99666.59;12198019;19;20010;-79
2022/06/16 00:11:42;;;;;;;6.28;4.50;;;;;;;21.07;49.48;99665.41;12180166;19;20547;-79
2022/06/16 00:15:44;;;;;;;5.25;3.47;;;;;;;21.08;49.54;99657.81;12209215;19;20011;-80
2022/06/16 00:19:45;;;;;;;9.85;3.90;;;;;;;21.08;49.39;99655.81;12211624;19;20038;-80
2022/06/16 00:23:47;;;;;;;7.43;3.65;;;;;;;21.14;49.38;99653.72;12180266;19;20002;-80
2022/06/16 00:27:49;;;;;;;4.90;3.85;;;;;;;21.16;49.39;99654.22;12203546;19;20010;-80
2022/06/16 00:31:51;;;;;;;9.95;3.72;;;;;;;21.10;50.01;99628.31;12199992;19;20042;-80
2022/06/16 00:35:52;;;;;;;5.30;3.70;;;;;;;21.06;49.76;99632.09;12184783;19;20010;-80
2022/06/16 00:39:54;;;;;;;6.15;3.03;;;;;;;21.08;49.36;99639.03;12201134;19;20034;-80
2022/06/16 00:44:30;;;;;;;5.27;3.43;;;;;;;21.14;49.55;99642.50;12193092;19;20034;-79
2022/06/16 00:48:58;;;;;;;4.93;3.50;;;;;;;21.11;49.29;99645.97;12211031;19;20060;-80
2022/06/16 00:53:01;;;;;;;6.03;3.50;;;;;;;21.03;49.60;99643.94;12232123;19;20566;-79
2022/06/16 00:57:05;;;;;;;;;;;;;;;20.88;50.99;99643.25;12187612;19;20011;-80
2022/06/16 01:01:11;;;;;;;7.80;3.50;;;;;;;20.81;50.35;99631.66;12210642;19;19923;-79
2022/06/16 01:05:13;;;;;;;9.30;3.35;;;;;;;20.71;50.75;99629.97;12207830;19;20014;-80
2022/06/16 01:09:20;;;;;;;5.35;3.72;;;;;;;20.62;50.83;99631.91;12184539;19;20006;-80
2022/06/16 01:13:42;;;;;;;6.20;3.78;;;;;;;20.53;51.37;99631.03;12207101;19;20017;-80
2022/06/16 01:17:49;;;;;;;8.57;3.65;;;;;;;20.45;51.75;99623.38;12183509;19;20122;-81
2022/06/16 01:21:54;;;;;;;6.75;3.58;;;;;;;20.37;52.25;99627.75;12212100;19;20015;-79
2022/06/16 01:26:17;;;;;;;6.43;3.50;;;;;;;20.24;53.16;99625.88;12198996;19;20476;-80
2022/06/16 01:30:31;;;;;;;6.85;3.67;;;;;;;20.14;53.53;99629.78;12174797;19;20094;-80
2022/06/16 01:34:47;;;;;;;7.13;4.05;;;;;;;20.10;53.60;99625.13;12207128;19;20401;-79
2022/06/16 01:39:19;;;;;;;6.63;3.97;;;;;;;20.03;54.18;99633.97;12186637;19;20029;-79
2022/06/16 01:43:36;;;;;;;6.88;3.50;;;;;;;19.94;54.15;99645.06;12198181;19;20019;-79
2022/06/16 01:47:42;;;;;;;6.47;3.47;;;;;;;19.84;54.68;99644.47;12197548;19;20010;-79
2022/06/16 01:51:53;;;;;;;7.13;3.63;;;;;;;19.74;55.19;99646.38;12169747;19;20010;-79
2022/06/16 01:56:21;;;;;;;5.88;3.70;;;;;;;19.61;56.36;99651.97;12193975;19;20099;-79
2022/06/16 02:00:26;;;;;;;5.45;3.75;;;;;;;19.48;56.30;99651.69;12166275;19;20091;-79
2022/06/16 02:04:37;;;;;;;6.75;3.63;;;;;;;19.37;57.25;99655.84;12202761;19;20006;-80
2022/06/16 02:08:46;;;;;;;5.78;3.85;;;;;;;19.28;57.83;99652.13;12061800;19;2734550;-79
2022/06/16 02:12:55;;;;;;;5.20;3.90;;;;;;;19.20;58.31;99664.03;12203854;19;20027;-79
2022/06/16 02:17:21;;;;;;;8.00;3.85;;;;;;;19.07;58.55;99668.50;12199748;19;20027;-79
2022/06/16 02:21:39;;;;;;;7.60;3.90;;;;;;;18.96;59.71;99675.41;12180771;19;20014;-80
2022/06/16 02:25:45;;;;;;;6.97;4.30;;;;;;;18.84;60.13;99670.31;12191717;19;20017;-79
2022/06/16 02:29:47;;;;;;;8.48;4.72;;;;;;;18.79;60.45;99668.44;12180777;19;20780;-79
2022/06/16 02:34:04;;;;;;;5.93;4.30;;;;;;;18.75;61.08;99673.00;12218772;19;20030;-79
2022/06/16 02:38:38;;;;;;;7.28;3.65;;;;;;;18.79;61.35;99681.56;12246974;19;20021;-79
2022/06/16 02:42:48;;;;;;;6.18;4.80;;;;;;;18.79;61.05;99678.78;12224006;19;20014;-80
2022/06/16 02:47:15;;;;;;;6.63;4.05;;;;;;;18.78;61.32;99677.13;12240694;19;20013;-81
2022/06/16 02:51:40;;;;;;;7.65;4.03;;;;;;;18.78;61.62;99679.94;12211197;19;20021;-80
2022/06/16 02:55:49;;;;;;;8.65;3.78;;;;;;;18.81;61.34;99682.09;12231684;19;20006;-79
2022/06/16 02:59:57;;;;;;;5.68;3.92;;;;;;;18.76;61.66;99684.97;12199790;19;20121;-80
2022/06/16 03:04:08;;;;;;;6.80;4.05;;;;;;;18.73;61.60;99689.22;12220594;19;20019;-80
2022/06/16 03:08:10;;;;;;;7.05;3.75;;;;;;;18.68;62.01;99686.50;12213686;19;20127;-80
2022/06/16 03:12:16;;;;;;;7.97;3.72;;;;;;;18.69;61.49;99693.72;12210627;19;20014;-81
2022/06/16 03:16:18;;;;;;;6.07;3.88;;;;;;;18.72;61.56;99679.16;12229058;19;20014;-80
2022/06/16 03:20:22;;;;;;;10.45;4.30;;;;;;;18.75;61.54;99691.72;12230197;19;20006;-80
2022/06/16 03:24:25;;;;;;;5.80;3.60;;;;;;;18.73;61.98;99688.34;12205441;19;20015;-81
2022/06/16 03:28:28;;;;;;;5.03;3.45;;;;;;;18.77;61.32;99687.47;12223854;19;20011;-80
2022/06/16 03:32:29;;;;;;;4.90;3.15;;;;;;;18.85;61.15;99691.50;12216990;19;20015;-80
2022/06/16 03:36:33;;;;;;;6.75;3.78;;;;;;;18.87;61.41;99692.88;12203991;19;20025;-80
2022/06/16 03:40:36;;;;;;;8.18;4.05;;;;;;;18.92;60.98;99699.47;12226103;19;20015;-80
2022/06/16 03:44:37;;;;;;;6.85;3.30;;;;;;;18.93;60.80;99701.16;12217234;19;20018;-81
2022/06/16 03:48:41;;;;;;;5.95;3.40;;;;;;;19.05;60.39;99707.88;12210911;19;20014;-81
2022/06/16 03:52:43;;;;;;;9.35;3.78;;;;;;;19.19;60.49;99698.69;12234076;19;20396;-80
2022/06/16 03:56:45;;;;;;;11.83;3.53;;;;;;;19.27;59.61;99703.53;12224177;19;20087;-80
2022/06/16 04:00:51;;;;;;;10.05;3.97;;;;;;;19.31;59.95;99716.59;12220421;19;20017;-80
2022/06/16 04:04:55;;;;;;;7.30;3.58;;;;;;;19.38;59.77;99715.34;12221176;19;20010;-80
2022/06/16 04:08:58;;;;;;;9.75;3.80;;;;;;;19.40;59.09;99705.53;12199141;19;20015;-81
2022/06/16 04:13:00;;;;;;;6.07;3.10;;;;;;;19.41;58.60;99704.38;12209132;19;20025;-80
2022/06/16 04:17:05;;;;;;;6.20;3.45;;;;;;;19.43;58.34;99716.06;12212827;19;20031;-80
2022/06/16 04:21:17;;;;;;;7.25;3.38;;;;;;;19.45;58.23;99715.75;12195774;19;20011;-80
2022/06/16 04:25:30;;;;;;;5.05;3.05;;;;;;;19.41;58.11;99712.75;12221087;19;20017;-80
2022/06/16 04:29:40;;;;;;;4.55;3.10;;;;;;;19.40;57.81;99721.47;12214575;19;20011;-80
2022/06/16 04:33:42;;;;;;;3.70;2.05;;;;;;;19.39;57.69;99717.81;12195534;19;20006;-80
2022/06/16 04:37:44;;;;;;;9.68;3.40;;;;;;;19.39;58.15;99730.97;12216025;19;20109;-81
2022/06/16 04:41:46;;;;;;;8.40;3.80;;;;;;;19.35;58.25;99727.97;12206879;19;20505;-80
2022/06/16 04:45:50;;;;;;;4.95;3.05;;;;;;;19.33;58.17;99739.47;12219668;19;20345;-81
2022/06/16 04:49:56;;;;;;;8.88;3.38;;;;;;;19.33;58.64;99744.19;12221489;19;20073;-80
2022/06/16 04:53:59;;;;;;;6.53;3.25;;;;;;;19.26;59.09;99755.78;12185327;19;20019;-80
2022/06/16 04:58:28;;;;;;;6.85;3.85;;;;;;;19.25;59.56;99759.72;12210333;19;20033;-79
2022/06/16 05:02:48;;;;;;;7.97;3.22;;;;;;;19.27;59.13;99763.03;12195577;19;20031;-80
2022/06/16 05:07:09;;;;;;;9.35;3.40;;;;;;;19.27;59.36;99765.00;12216211;19;20726;-79
2022/06/16 05:11:24;;;;;;;4.90;3.03;;;;;;;19.30;59.59;99758.78;12204613;19;20039;-80
2022/06/16 05:15:40;;;;;;;6.78;3.17;;;;;;;19.43;59.18;99759.97;12182295;19;20456;-79
2022/06/16 05:19:51;;;;;;;4.72;3.22;;;;;;;19.68;58.83;99775.41;12211241;19;20007;-79
2022/06/16 05:24:26;;;;;;;5.35;3.90;;;;;;;20.06;57.55;99789.97;12186990;19;20077;-80
2022/06/16 05:28:50;;;;;;;5.45;3.25;;;;;;;20.33;57.35;99793.84;12216624;19;20014;-80
2022/06/16 05:33:04;;;;;;;4.78;3.38;;;;;;;20.65;56.71;99799.25;12201265;19;20070;-79
2022/06/16 05:37:25;;;;;;;7.30;3.20;;;;;;;20.83;55.79;99808.59;12208929;19;20007;-80
2022/06/16 05:41:50;;;;;;;7.20;3.15;;;;;;;20.92;55.31;99817.91;12195111;19;20017;-80
2022/06/16 05:45:59;;;;;;;7.03;3.15;;;;;;;21.04;55.42;99814.53;12205610;19;20845;-79
2022/06/16 05:50:08;;;;;;;5.82;3.25;;;;;;;21.16;54.64;99820.34;12211233;19;20003;-79
2022/06/16 05:54:11;;;;;;;6.20;3.28;;;;;;;21.24;54.85;99824.38;12178051;19;20018;-79
2022/06/16 05:58:14;;;;;;;8.18;3.25;;;;;;;21.25;54.72;99831.63;12207661;19;20483;-79
2022/06/16 06:02:26;;;;;;;6.07;3.30;;;;;;;21.44;53.94;99841.81;12197662;19;20014;-79
2022/06/16 06:06:33;;;;;;;6.38;3.58;;;;;;;21.72;53.80;99843.28;12180245;19;20279;-78
2022/06/16 06:19:24;;;;;;;5.35;3.20;;;;;;;21.77;53.90;99854.34;12218083;19;20019;-81
2022/06/16 06:23:26;;;;;;;5.70;3.47;;;;;;;21.75;53.56;99856.66;12220974;19;20015;-80
2022/06/16 06:27:38;;;;;;;6.93;3.08;;;;;;;21.67;54.18;99859.41;12195832;19;20006;-80
2022/06/16 06:31:41;;;;;;;7.55;4.82;;;;;;;21.67;53.79;99867.81;12225347;19;20018;-80
2022/06/16 06:35:43;;;;;;;3.87;2.87;;;;;;;21.64;54.43;99866.50;12214761;19;20014;-79
2022/06/16 06:39:45;;;;;;;7.80;3.47;;;;;;;21.78;54.34;99886.84;12201724;19;20006;-80
2022/06/16 06:43:48;;;;;;;6.40;3.58;;;;;;;22.17;53.42;99882.41;12220855;19;20023;-80
2022/06/16 06:47:51;;;;;;;5.38;3.30;;;;;;;22.44;51.88;99888.91;12187740;19;20017;-79
2022/06/16 06:51:52;;;;;;;;;;;;;;;22.49;51.64;99897.19;12217325;19;20023;-80
2022/06/16 06:55:54;;;;;;;4.40;2.70;;;;;;;22.48;51.21;99895.53;12207069;19;19931;-79
2022/06/16 06:59:55;;;;;;;7.40;2.92;;;;;;;22.56;51.51;99883.47;12196436;19;20014;-79
2022/06/16 07:03:57;;;;;;;8.57;3.20;;;;;;;22.49;50.51;99894.38;12220643;19;20010;-79
2022/06/16 07:07:59;;;;;;;7.00;2.53;;;;;;;22.70;50.03;99897.38;12208841;19;20007;-80
2022/06/16 07:12:01;;;;;;;8.13;3.47;;;;;;;22.78;49.75;99904.97;12193092;19;20272;-81
2022/06/16 07:16:04;;;;;;;5.03;3.10;;;;;;;23.05;49.62;99901.03;12215427;19;20080;-79
2022/06/16 07:20:06;;;;;;;5.20;3.20;;;;;;;23.37;49.05;99908.13;12232502;19;20010;-80
2022/06/16 07:24:08;;;;;;;6.90;3.08;;;;;;;23.82;48.23;99921.78;12172625;19;20007;-80
2022/06/16 07:28:10;;;;;;;6.97;3.00;;;;;;;24.07;47.76;99922.84;12232614;19;20017;-83
2022/06/16 07:32:13;;;;;;;5.72;3.67;;;;;;;24.21;47.81;99928.28;12227888;19;20006;-81
2022/06/16 07:36:15;;;;;;;5.18;2.92;;;;;;;24.38;46.93;99929.34;12200325;19;20089;-81
2022/06/16 07:40:19;;;;;;;6.50;3.13;;;;;;;24.48;45.96;99924.19;12230871;19;20019;-81
2022/06/16 07:44:21;;;;;;;5.07;2.90;;;;;;;24.30;46.62;99931.00;12231708;19;20020;-82
2022/06/16 07:48:23;;;;;;;8.33;3.63;;;;;;;24.31;46.74;99941.97;12208104;19;20010;-81
2022/06/16 07:52:25;;;;;;;8.07;2.88;;;;;;;24.45;46.27;99946.53;12220689;19;20014;-81
2022/06/16 07:56:29;;;;;;;8.25;3.00;;;;;;;24.63;45.05;99944.44;12220315;19;20026;-81
2022/06/16 08:00:35;;;;;;;4.77;2.83;;;;;;;24.84;44.08;99952.94;12206673;19;20017;-81
2022/06/16 08:04:37;;;;;;;7.28;3.05;;;;;;;24.93;43.13;99948.09;12225747;19;20036;-80
2022/06/16 08:08:40;;;;;;;6.07;2.57;;;;;;;25.07;43.49;99953.44;12228493;19;20007;-80
2022/06/16 08:12:42;;;;;;;5.43;2.70;;;;;;;25.33;43.02;99961.72;12209059;19;20014;-80
2022/06/16 08:16:44;;;;;;;;;;;;;;;25.51;42.08;99962.38;12219531;19;20014;-84
2022/06/16 08:20:47;;;;;;;6.45;2.75;;;;;;;25.53;42.27;99951.59;12221171;19;19918;-80
2022/06/16 08:24:49;;;;;;;7.57;3.05;;;;;;;25.76;41.13;99964.13;12203492;19;20017;-79
2022/06/16 08:28:53;;;;;;;5.93;3.28;;;;;;;25.69;41.51;99963.84;12217643;19;20070;-80
2022/06/16 08:32:55;;;;;;;7.07;3.08;;;;;;;25.80;41.27;99956.59;12195571;19;20370;-80
2022/06/16 08:36:57;;;;;;;7.60;3.05;;;;;;;25.97;41.17;99963.25;12210589;19;20030;-80
2022/06/16 08:41:12;;;;;;;6.13;2.70;;;;;;;26.30;40.90;99966.03;12219220;19;20023;-80
2022/06/16 08:45:32;;;;;;;5.75;3.10;;;;;;;26.52;39.93;99956.28;12190462;19;20010;-80
2022/06/16 08:49:54;;;;;;;4.82;3.13;;;;;;;26.57;39.79;99971.00;12208339;19;20010;-81
2022/06/16 08:54:21;;;;;;;7.68;3.00;;;;;;;26.52;39.80;99974.03;12195052;19;20010;-79
2022/06/16 08:58:42;;;;;;;6.78;3.17;;;;;;;26.70;39.63;99985.94;12218850;19;20535;-80
2022/06/16 09:02:59;;;;;;;5.88;2.97;;;;;;;26.96;39.45;99993.22;12188203;19;20011;-81
2022/06/16 09:07:28;;;;;;;5.82;3.38;;;;;;;27.15;38.59;99996.25;12213654;19;20006;-80
2022/06/16 09:11:37;;;;;;;7.32;3.40;;;;;;;27.33;38.55;99991.16;12217876;19;20014;-80
2022/06/16 09:15:50;;;;;;;6.90;2.95;;;;;;;27.56;38.38;99985.75;12190817;19;20366;-80
2022/06/16 09:20:12;;;;;;;6.35;3.08;;;;;;;27.82;37.62;99981.69;12218564;19;20027;-81
2022/06/16 09:25:04;;;;;;;7.60;3.22;;;;;;;27.83;36.93;99986.97;12199864;19;20010;-86
2022/06/16 09:29:19;;;;;;;6.85;3.00;;;;;;;27.80;36.44;99979.19;12209846;19;20007;-85
2022/06/16 09:33:33;;;;;;;6.63;3.72;;;;;;;27.95;36.71;99997.41;12189174;19;20086;-84
2022/06/16 09:38:02;;;;;;;7.10;3.30;;;;;;;28.02;35.74;99996.75;12213487;19;20007;-83
2022/06/16 09:46:49;;;;;;;5.82;3.40;;;;;;;28.25;36.13;99999.81;12218586;19;20011;-83
2022/06/16 09:51:26;;;;;;;5.28;3.15;;;;;;;28.59;34.97;99990.63;12223446;19;20597;-82
2022/06/16 09:55:40;;;;;;;7.40;2.80;;;;;;;28.56;34.22;99990.53;12233607;19;20015;-84
2022/06/16 09:59:50;;;;;;;6.33;3.63;;;;;;;28.61;33.70;99993.06;12239216;19;20192;-82
2022/06/16 10:04:03;;;;;;;7.47;3.25;;;;;;;28.65;33.75;99998.84;12209999;19;20511;-82
2022/06/16 10:08:26;;;;;;;10.38;3.17;;;;;;;28.65;33.49;99999.66;12213734;19;20010;-81
2022/06/16 10:12:41;;;;;;;11.77;3.80;;;;;;;28.91;33.39;100007.56;12190853;19;20023;-81
2022/06/16 10:16:56;;;;;;;7.57;3.58;;;;;;;29.07;33.22;100010.41;12208725;19;20082;-82
2022/06/16 10:20:58;;;;;;;5.68;3.22;;;;;;;28.89;33.35;100023.34;12184330;19;20006;-82
2022/06/16 10:25:07;;;;;;;5.10;2.90;;;;;;;28.91;32.71;100026.59;12210365;19;20492;-82
2022/06/16 10:29:12;;;;;;;9.05;2.90;;;;;;;29.21;33.32;100027.78;12200698;19;20007;-83
2022/06/16 10:33:23;;;;;;;5.75;2.75;;;;;;;29.30;32.55;100036.91;12181483;19;20482;-81
2022/06/16 10:37:27;;;;;;;5.72;2.88;;;;;;;29.49;32.59;100047.44;12194272;19;20010;-83
2022/06/16 10:41:43;;;;;;;7.82;2.90;;;;;;;29.57;32.37;100056.09;12200220;19;20022;-82
2022/06/16 10:45:57;;;;;;;5.68;3.35;;;;;;;29.43;31.97;100057.44;12184463;19;20010;-82
2022/06/16 10:50:08;;;;;;;9.05;3.20;;;;;;;29.48;32.17;100068.53;12203357;19;20014;-81
2022/06/16 10:54:22;;;;;;;5.75;2.97;;;;;;;29.64;31.31;100067.66;12186121;19;20650;-81
2022/06/16 10:58:29;;;;;;;4.53;2.90;;;;;;;29.74;31.30;100067.06;12218721;19;20663;-82
2022/06/16 11:03:09;;;;;;;9.80;3.33;;;;;;;29.92;31.33;100054.03;12214111;19;20014;-81
2022/06/16 11:07:28;;;;;;;12.32;3.40;;;;;;;30.07;30.86;100054.34;12185599;19;20011;-81
2022/06/16 11:11:54;;;;;;;8.82;3.88;;;;;;;30.13;31.28;100055.66;12221732;19;20010;-85
2022/06/16 11:15:56;;;;;;;5.32;3.33;;;;;;;30.29;30.73;100058.47;12181957;19;20011;-82
2022/06/16 11:20:06;;;;;;;9.25;3.85;;;;;;;30.31;31.00;100065.41;12206141;19;20038;-81
2022/06/16 11:24:23;;;;;;;6.38;3.13;;;;;;;30.61;30.96;100054.19;12203589;19;20014;-82
2022/06/16 11:28:54;;;;;;;5.55;3.60;;;;;;;30.73;30.14;100056.00;12204276;19;20010;-81
2022/06/16 11:33:05;;;;;;;6.25;4.03;;;;;;;30.78;29.85;100058.53;12195567;19;20030;-80
2022/06/16 11:37:09;;;;;;;6.30;3.58;;;;;;;30.81;29.72;100049.25;12204992;19;20027;-80
2022/06/16 11:41:15;;;;;;;6.53;3.50;;;;;;;31.13;30.17;100059.50;12218662;19;20020;-80
2022/06/16 11:45:33;;;;;;;4.88;3.40;;;;;;;31.13;28.49;100048.13;12194257;19;20483;-82
2022/06/16 11:49:47;;;;;;;4.88;3.45;;;;;;;30.94;28.43;100060.44;12222206;19;20009;-81
2022/06/16 11:54:13;;;;;;;5.45;3.30;;;;;;;30.89;29.00;100064.41;12218365;19;20027;-82
2022/06/16 11:58:28;;;;;;;9.52;5.10;;;;;;;31.30;28.68;100048.38;12190018;19;20341;-84
2022/06/16 12:03:07;;;;;;;7.85;3.65;;;;;;;31.41;27.46;100042.88;12228890;19;20011;-83
2022/06/16 12:07:48;;;;;;;7.43;3.15;;;;;;;31.52;27.74;100045.84;12211786;19;20010;-82
2022/06/16 12:11:54;;;;;;;4.95;3.28;;;;;;;31.54;27.17;100037.75;12214512;19;20039;-81
2022/06/16 12:16:29;;;;;;;4.38;2.58;;;;;;;31.96;26.64;100045.22;12176756;19;20051;-84
2022/06/16 12:20:56;;;;;;;5.03;2.50;;;;;;;32.40;22.63;100033.06;12220230;19;20011;-82
2022/06/16 12:25:21;;;;;;;6.70;2.47;;;;;;;33.10;21.44;100031.22;12185473;19;20015;-81
2022/06/16 12:29:37;;;;;;;4.47;2.50;;;;;;;34.02;21.47;100044.38;12202775;19;20017;-82
2022/06/16 12:33:53;;;;;;;3.97;2.90;;;;;;;35.06;19.59;100041.69;12180769;19;20513;-86
2022/06/16 12:38:31;;;;;;;4.38;3.08;;;;;;;35.34;19.52;100038.75;12210782;19;20015;-81
2022/06/16 12:42:41;;;;;;;4.95;3.03;;;;;;;35.95;19.88;100034.88;12189184;19;20031;-81
2022/06/16 12:46:49;;;;;;;4.10;2.95;;;;;;;36.55;18.53;100032.91;12198621;19;20006;-81
2022/06/16 12:50:58;;;;;;;4.78;2.70;;;;;;;36.54;18.06;100032.09;12206417;19;20011;-81
2022/06/16 12:55:17;;;;;;;4.95;3.10;;;;;;;37.26;18.09;100040.06;12165179;19;20022;-83
2022/06/16 12:59:27;;;;;;;5.45;2.80;;;;;;;37.88;16.92;100023.75;12205611;19;20011;-82
2022/06/16 13:03:41;;;;;;;8.02;2.78;;;;;;;38.61;16.78;100034.63;12170659;19;20011;-82
2022/06/16 13:07:52;;;;;;;4.15;2.90;;;;;;;39.38;16.62;100038.63;12202642;19;20020;-83
2022/06/16 13:12:04;;;;;;;3.90;2.50;;;;;;;39.51;15.81;100045.38;12209990;19;20019;-81
2022/06/16 13:16:08;;;;;;;4.15;2.55;;;;;;;39.54;15.70;100058.09;12191782;19;20014;-82
2022/06/16 13:20:27;;;;;;;4.97;2.90;;;;;;;39.37;15.64;100060.88;12228371;19;20027;-83
2022/06/16 13:24:51;;;;;;;3.95;2.70;;;;;;;40.00;14.94;100048.47;12193278;19;20475;-82
2022/06/16 13:29:17;;;;;;;4.72;2.50;;;;;;;40.85;13.66;100052.72;12193851;19;20373;-82
2022/06/16 13:33:31;;;;;;;3.05;2.13;;;;;;;40.85;12.02;100055.63;12213155;19;20018;-81
2022/06/16 13:38:10;;;;;;;2.78;1.70;;;;;;;39.87;12.58;100057.00;12216301;19;20054;-82
2022/06/16 13:42:45;;;;;;;2.00;1.50;;;;;;;40.15;12.25;100048.16;12197216;19;20006;-82
2022/06/16 13:53:04;;;;;;;3.03;1.55;;;;;;;41.99;11.11;100040.88;12197347;19;20727;-82
2022/06/16 13:57:45;;;;;;;1.88;1.50;;;;;;;42.42;10.53;100039.56;12190527;19;20015;-82
2022/06/16 14:02:20;;;;;;;3.43;1.80;;;;;;;41.90;11.49;100037.88;12199667;19;20473;-83
2022/06/16 14:06:37;;;;;;;4.20;1.60;;;;;;;41.65;11.41;100050.97;12166373;19;20011;-83
2022/06/16 14:10:48;;;;;;;3.08;1.63;;;;;;;41.61;11.57;100053.13;12207367;19;20011;-82
2022/06/16 14:14:53;;;;;;;4.95;1.50;;;;;;;41.86;10.79;100057.41;12194392;19;20463;-82
2022/06/16 14:19:16;;;;;;;2.00;1.55;;;;;;;43.00;10.79;100038.44;12181260;19;20006;-83
2022/06/16 14:23:33;;;;;;;2.10;1.58;;;;;;;43.49;10.37;100043.72;12204143;19;20019;-82
2022/06/16 14:27:49;;;;;;;4.18;1.50;;;;;;;42.73;11.11;100054.28;12214920;19;20118;-83
2022/06/16 14:32:31;;;;;;;3.53;1.88;;;;;;;42.75;10.85;100056.72;12207053;19;20031;-84
2022/06/16 14:36:46;;;;;;;4.97;2.97;;;;;;;43.07;11.27;100052.69;12207440;19;20091;-85
2022/06/16 14:46:33;;;;;;;4.07;1.67;;;;;;;44.15;10.68;100049.56;12148047;19;20513;-85
2022/06/16 14:51:09;;;;;;;5.13;1.80;;;;;;;43.88;10.36;100050.19;12207463;19;20017;-83
2022/06/16 14:55:15;;;;;;;2.53;1.50;;;;;;;44.11;10.62;100061.31;12197910;19;20006;-83
2022/06/16 15:00:15;;;;;;;3.92;1.80;;;;;;;43.37;10.09;100054.16;12205367;19;20074;-83
2022/06/16 15:04:29;;;;;;;1.48;1.15;;;;;;;40.55;11.48;100057.56;12215974;19;20022;-83
2022/06/16 15:08:41;;;;;;;4.03;1.73;;;;;;;38.66;12.68;100047.69;12205892;19;20010;-83
2022/06/16 15:12:44;;;;;;;3.03;1.63;;;;;;;37.63;13.42;100048.69;12193741;19;20014;-83
2022/06/16 15:21:12;;;;;;;1.67;1.38;;;;;;;39.39;12.58;100052.63;12194892;19;20017;-83
2022/06/16 15:25:17;;;;;;;2.80;1.45;;;;;;;37.88;12.85;100067.69;12218787;19;20067;-82
2022/06/16 15:29:19;;;;;;;2.88;1.90;;;;;;;36.53;13.54;100067.78;12216309;19;20031;-82
2022/06/16 15:37:43;;;;;;;3.90;1.73;;;;;;;33.83;15.71;100073.31;12207904;19;20011;-82
2022/06/16 15:41:49;;;;;;;1.80;1.40;;;;;;;32.87;15.37;100065.69;12216059;19;20006;-83
2022/06/16 15:45:56;;;;;;;2.92;1.90;;;;;;;32.06;17.04;100067.31;12184424;19;20350;-83
2022/06/16 15:50:29;;;;;;;3.95;2.20;;;;;;;31.35;19.24;100072.06;12214934;19;20321;-82
2022/06/16 15:54:38;;;;;;;2.40;1.65;;;;;;;30.76;19.47;100066.63;12184002;19;20477;-81
2022/06/16 15:58:39;;;;;;;2.78;1.55;;;;;;;30.37;19.92;100066.75;12221165;19;20019;-82
2022/06/16 16:02:45;;;;;;;3.35;1.65;;;;;;;30.24;20.22;100068.09;12215404;19;20006;-82
2022/06/16 16:06:55;;;;;;;4.47;1.75;;;;;;;30.25;20.78;100060.38;12198266;19;20022;-81
2022/06/16 16:11:17;;;;;;;2.25;1.80;;;;;;;30.15;21.26;100067.50;12220881;19;20010;-81
2022/06/16 16:15:19;;;;;;;4.30;2.00;;;;;;;29.86;21.48;100072.59;12177344;19;20110;-83
2022/06/16 16:19:21;;;;;;;4.40;1.70;;;;;;;29.85;21.43;100068.13;12217343;19;20018;-82
2022/06/16 16:23:48;;;;;;;2.70;1.42;;;;;;;29.77;22.67;100077.69;12215440;19;20013;-81
2022/06/16 16:27:51;;;;;;;3.42;1.88;;;;;;;29.53;22.17;100068.22;12185485;19;20010;-82
2022/06/16 16:31:58;;;;;;;5.03;1.67;;;;;;;29.30;22.66;100070.13;12222057;19;20002;-84
2022/06/16 16:36:02;;;;;;;4.38;1.85;;;;;;;29.10;22.93;100082.63;12192752;19;20011;-85
2022/06/16 16:40:18;;;;;;;4.97;1.75;;;;;;;28.87;23.54;100088.09;12220620;19;20006;-84
2022/06/16 16:44:39;;;;;;;2.00;1.50;;;;;;;28.80;23.42;100086.72;12209850;19;20040;-84
2022/06/16 16:48:53;;;;;;;3.30;1.50;;;;;;;28.77;23.78;100093.13;12187836;19;20036;-85
2022/06/16 16:53:23;;;;;;;1.90;1.33;;;;;;;28.60;24.00;100093.50;12206061;19;20010;-81
2022/06/16 16:57:25;;;;;;;3.28;1.95;;;;;;;28.53;23.78;100094.13;12180871;19;20669;-82
2022/06/16 17:01:31;;;;;;;3.80;1.90;;;;;;;28.46;24.36;100102.44;12214071;19;20018;-84
2022/06/16 17:05:35;;;;;;;2.92;1.58;;;;;;;28.43;23.94;100119.34;12206240;19;20027;-82
2022/06/16 17:09:37;;;;;;;5.50;1.67;;;;;;;28.29;23.31;100106.41;12217114;19;20051;-82
2022/06/16 17:13:59;;;;;;;3.28;1.25;;;;;;;28.13;23.62;100116.88;12209654;19;20010;-85
2022/06/16 17:18:09;;;;;;;3.08;1.20;;;;;;;28.02;23.70;100124.22;12195143;19;20039;-85
2022/06/16 17:22:42;;;;;;;2.87;1.10;;;;;;;27.97;23.38;100127.34;12213521;19;20034;-83
2022/06/16 17:27:11;;;;;;;1.92;1.23;;;;;;;27.93;22.92;100130.03;12208820;19;20007;-86
2022/06/16 17:31:25;;;;;;;2.13;1.58;;;;;;;27.83;23.65;100136.22;12197640;19;20006;-84
2022/06/16 17:35:37;;;;;;;6.95;1.40;;;;;;;28.09;23.49;100136.59;12201975;19;20034;-85
2022/06/16 17:39:44;;;;;;;3.20;1.33;;;;;;;28.16;24.00;100133.16;12183976;19;20011;-84
2022/06/16 17:43:50;;;;;;;4.13;1.30;;;;;;;27.94;24.18;100132.53;12203754;19;20050;-83
2022/06/16 17:47:52;;;;;;;3.83;1.27;;;;;;;27.80;24.50;100148.25;12213254;19;20020;-84
2022/06/16 17:59:39;;;;;;;2.55;1.60;;;;;;;27.40;23.69;100141.34;12208941;19;20014;-83
2022/06/16 18:00:48;;;;;;;2.97;1.20;;;;;;;27.31;24.36;100139.81;12186641;19;20503;-84
2022/06/16 18:05:05;;;;;;;2.83;1.30;;;;;;;27.22;24.22;100135.13;12214802;19;20027;-84
2022/06/16 18:09:14;;;;;;;3.50;1.20;;;;;;;27.09;24.62;100138.25;12196149;19;20010;-84
2022/06/16 18:13:41;;;;;;;1.92;1.10;;;;;;;26.88;24.72;100127.06;12221411;19;20649;-83
2022/06/16 18:17:45;;;;;;;3.58;1.20;;;;;;;26.58;25.37;100127.25;12250513;19;20090;-84
2022/06/16 18:21:48;;;;;;;2.85;1.00;;;;;;;26.33;25.46;100138.47;12204314;19;20022;-84
2022/06/16 18:25:52;;;;;;;8.15;1.10;;;;;;;26.10;25.54;100134.38;12227431;19;20028;-84
2022/06/16 18:30:07;;;;;;;2.75;1.10;;;;;;;26.01;25.99;100127.97;12228864;19;20023;-84
2022/06/16 18:34:37;;;;;;;2.70;1.15;;;;;;;25.85;26.20;100131.44;12111230;19;2020479;-83
2022/06/16 18:39:10;;;;;;;5.30;1.30;;;;;;;25.60;26.71;100152.19;12198605;19;20043;-83
2022/06/16 18:43:19;;;;;;;5.53;1.00;;;;;;;25.42;26.93;100163.56;12201928;19;20019;-83
2022/06/16 18:47:22;;;;;;;2.40;0.90;;;;;;;25.27;26.98;100160.50;12206408;19;20028;-83
2022/06/16 18:51:26;;;;;;;2.60;0.85;;;;;;;25.18;27.32;100171.84;12200168;19;20125;-83
2022/06/16 18:55:28;;;;;;;3.53;1.08;;;;;;;25.03;27.09;100164.75;12217867;19;20117;-83
2022/06/16 18:59:31;;;;;;;4.18;0.90;;;;;;;24.83;27.80;100179.56;12216507;19;20093;-83
2022/06/16 19:03:40;;;;;;;1.17;0.93;;;;;;;24.66;27.92;100170.03;12203241;19;20169;-84
2022/06/16 19:07:41;;;;;;;3.07;1.13;;;;;;;24.51;27.97;100168.56;12227305;19;20023;-83
2022/06/16 19:16:05;;;;;;;2.97;1.17;;;;;;;24.21;28.81;100186.47;12201651;19;20015;-84
2022/06/16 19:20:13;;;;;;;3.50;1.03;;;;;;;24.11;28.53;100190.44;12225544;19;20013;-84
2022/06/16 19:24:23;;;;;;;2.55;1.10;;;;;;;23.97;29.57;100184.16;12198382;19;20077;-81
2022/06/16 19:28:26;;;;;;;2.03;1.10;;;;;;;23.71;30.10;100201.00;12233185;19;20003;-81
2022/06/16 19:32:27;;;;;;;4.10;1.40;;;;;;;23.41;30.98;100212.00;12257598;19;20010;-83
2022/06/16 19:36:30;;;;;;;2.25;1.00;;;;;;;23.14;31.69;100219.53;12214823;19;20463;-83
2022/06/16 19:40:32;;;;;;;2.58;1.45;;;;;;;22.99;31.60;100231.16;12241751;19;20468;-82
2022/06/16 19:53:20;;;;;;;2.80;1.30;;;;;;;22.60;32.35;100246.75;12232858;19;20028;-83
2022/06/16 19:57:22;;;;;;;1.48;1.00;;;;;;;22.47;32.59;100258.91;12201292;19;20019;-83
2022/06/16 20:01:24;;;;;;;2.30;1.17;;;;;;;22.34;32.91;100266.25;12228621;19;20011;-82
2022/06/16 20:05:29;;;;;;;3.67;1.00;;;;;;;22.27;33.17;100282.69;12216758;19;20027;-82
2022/06/16 20:09:31;;;;;;;1.92;1.10;;;;;;;22.22;33.57;100302.44;12196686;19;20006;-82
2022/06/16 20:13:46;;;;;;;4.10;1.20;;;;;;;22.18;33.97;100301.44;12217245;19;20035;-82
2022/06/16 20:19:23;;;;;;;4.32;1.10;;;;;;;22.05;34.92;100317.13;12210275;19;20003;-82